createdAt,value
2022-07-29T00:03:06.647Z,1.85
2022-07-29T00:08:12.543Z,1.90
2022-07-29T00:13:32.225Z,2.20
2022-07-29T00:18:34.510Z,2.53
2022-07-29T00:23:37.054Z,1.60
2022-07-29T00:28:38.777Z,2.03
2022-07-29T00:33:40.492Z,2.17
2022-07-29T00:38:45.356Z,1.80
2022-07-29T00:43:47.199Z,2.15
2022-07-29T00:48:48.944Z,2.00
2022-07-29T00:53:52.058Z,2.63
2022-07-29T00:58:55.063Z,2.30
2022-07-29T01:03:56.897Z,2.28
2022-07-29T01:08:59.568Z,2.50
2022-07-29T01:14:02.916Z,2.20
2022-07-29T01:19:23.827Z,2.30
2022-07-29T01:24:39.066Z,2.22
2022-07-29T01:29:46.287Z,2.30
2022-07-29T01:34:58.825Z,2.38
2022-07-29T01:40:03.065Z,2.47
2022-07-29T01:45:15.153Z,2.40
2022-07-29T01:50:19.524Z,2.38
2022-07-29T01:55:26.267Z,2.75
2022-07-29T02:00:29.504Z,2.85
2022-07-29T02:05:33.649Z,3.17
2022-07-29T02:10:37.552Z,2.58
2022-07-29T02:15:43.874Z,2.88
2022-07-29T02:20:51.789Z,2.70
2022-07-29T02:25:57.171Z,2.42
2022-07-29T02:31:01.933Z,2.70
2022-07-29T02:36:04.506Z,2.67
2022-07-29T02:41:13.152Z,3.03
2022-07-29T02:46:29.533Z,3.10
2022-07-29T02:51:44.491Z,2.63
2022-07-29T02:56:47.696Z,3.03
2022-07-29T03:02:21.800Z,3.25
2022-07-29T03:07:24.472Z,3.00
2022-07-29T03:12:26.770Z,3.20
2022-07-29T03:17:28.866Z,3.05
2022-07-29T03:22:30.866Z,2.70
2022-07-29T03:27:32.592Z,2.97
2022-07-29T03:32:34.657Z,3.00
2022-07-29T03:37:37.606Z,3.00
2022-07-29T03:42:41.722Z,2.90
2022-07-29T03:48:08.335Z,3.22
2022-07-29T03:53:10.233Z,2.83
2022-07-29T03:58:13.634Z,3.10
2022-07-29T04:03:15.953Z,3.00
2022-07-29T04:08:17.793Z,3.30
2022-07-29T04:13:20.944Z,2.60
2022-07-29T04:18:22.714Z,3.05
2022-07-29T04:23:24.418Z,3.22
2022-07-29T04:28:27.193Z,2.80
2022-07-29T04:33:28.910Z,3.00
2022-07-29T04:38:30.640Z,3.22
2022-07-29T04:43:36.955Z,2.78
2022-07-29T04:48:38.911Z,2.80
2022-07-29T04:53:40.683Z,2.78
2022-07-29T04:58:42.371Z,2.58
2022-07-29T05:03:44.128Z,2.58
2022-07-29T05:08:45.816Z,3.00
2022-07-29T05:13:47.523Z,2.50
2022-07-29T05:18:49.250Z,2.30
2022-07-29T05:23:51.446Z,2.30
2022-07-29T05:28:53.526Z,2.20
2022-07-29T05:33:55.219Z,2.65
2022-07-29T05:38:56.931Z,2.33
2022-07-29T05:43:59.489Z,2.60
2022-07-29T05:49:01.488Z,2.30
2022-07-29T05:54:03.620Z,2.75
2022-07-29T05:59:05.333Z,2.60
2022-07-29T06:04:20.774Z,2.55
2022-07-29T06:09:24.036Z,3.10
2022-07-29T06:14:27.632Z,2.63
2022-07-29T06:19:29.457Z,2.60
2022-07-29T06:24:31.813Z,2.20
2022-07-29T06:29:33.577Z,2.40
2022-07-29T06:34:35.598Z,2.70
2022-07-29T06:39:38.253Z,2.47
2022-07-29T06:44:41.201Z,2.30
2022-07-29T06:49:42.929Z,2.30
2022-07-29T06:54:49.080Z,2.58
2022-07-29T06:59:50.784Z,2.70
2022-07-29T07:04:52.725Z,2.42
2022-07-29T07:09:54.469Z,2.58
2022-07-29T07:15:06.034Z,2.45
2022-07-29T07:20:09.274Z,2.50
2022-07-29T07:25:11.772Z,2.55
2022-07-29T07:30:15.925Z,2.33
2022-07-29T07:35:19.251Z,2.20
2022-07-29T07:40:58.222Z,2.17
2022-07-29T07:46:00.533Z,2.22
2022-07-29T07:51:02.304Z,2.38
2022-07-29T07:56:13.160Z,2.30
2022-07-29T08:01:15.181Z,2.15
2022-07-29T08:06:16.953Z,2.53
2022-07-29T08:11:18.674Z,2.28
2022-07-29T08:16:20.694Z,2.03
2022-07-29T08:21:22.793Z,2.33
2022-07-29T08:26:25.055Z,2.30
2022-07-29T08:31:26.867Z,2.25
2022-07-29T08:36:28.988Z,2.30
2022-07-29T08:41:31.864Z,2.58
2022-07-29T08:46:34.899Z,2.60
2022-07-29T08:51:49.592Z,2.25
2022-07-29T08:56:52.929Z,2.40
2022-07-29T09:02:01.002Z,2.58
2022-07-29T09:07:05.929Z,2.35
2022-07-29T09:12:09.429Z,2.45
2022-07-29T09:17:11.197Z,2.75
2022-07-29T09:22:29.505Z,2.40
2022-07-29T09:27:31.247Z,2.57
2022-07-29T09:32:34.360Z,2.55
2022-07-29T09:37:36.102Z,2.50
2022-07-29T09:42:38.414Z,2.42
2022-07-29T09:47:46.687Z,2.72
2022-07-29T09:52:51.107Z,2.70
2022-07-29T09:57:52.918Z,3.00
2022-07-29T10:03:03.587Z,2.47
2022-07-29T10:08:06.315Z,2.45
2022-07-29T10:13:16.383Z,2.58
2022-07-29T10:18:21.135Z,2.50
2022-07-29T10:23:23.276Z,2.60
2022-07-29T10:28:26.174Z,2.88
2022-07-29T10:33:39.935Z,2.50
2022-07-29T10:39:15.465Z,2.55
2022-07-29T10:44:24.035Z,2.72
2022-07-29T10:54:52.510Z,2.38
2022-07-29T11:00:07.088Z,2.33
2022-07-29T11:05:11.359Z,2.30
2022-07-29T11:10:14.055Z,2.30
2022-07-29T11:15:20.168Z,2.60
2022-07-29T11:20:39.015Z,2.40
2022-07-29T11:25:50.320Z,2.78
2022-07-29T11:30:54.451Z,2.67
2022-07-29T11:36:16.813Z,2.40
2022-07-29T11:41:26.021Z,2.30
2022-07-29T11:47:04.074Z,2.42
2022-07-29T11:52:10.983Z,2.20
2022-07-29T11:57:20.488Z,2.67
2022-07-29T12:02:37.642Z,2.50
2022-07-29T12:07:40.975Z,2.10
2022-07-29T12:12:43.182Z,2.50
2022-07-29T12:17:46.240Z,2.20
2022-07-29T12:22:54.771Z,2.15
2022-07-29T12:28:07.812Z,2.50
2022-07-29T12:33:18.136Z,2.17
2022-07-29T12:38:20.681Z,2.47
2022-07-29T12:43:24.164Z,2.60
2022-07-29T12:48:39.700Z,2.15
2022-07-29T12:53:41.525Z,2.38
2022-07-29T12:58:49.399Z,2.42
2022-07-29T13:03:56.899Z,2.45
2022-07-29T13:09:17.974Z,2.38
2022-07-29T13:14:42.253Z,2.10
2022-07-29T13:19:48.958Z,2.35
2022-07-29T13:24:55.213Z,2.10
2022-07-29T13:29:58.847Z,2.35
2022-07-29T13:35:05.335Z,2.95
2022-07-29T13:40:11.283Z,1.95
2022-07-29T13:45:13.318Z,2.30
2022-07-29T13:50:15.096Z,2.75
2022-07-29T13:55:16.813Z,2.10
2022-07-29T14:00:19.872Z,1.73
2022-07-29T14:05:21.615Z,2.28
2022-07-29T14:10:23.346Z,1.90
2022-07-29T14:15:26.022Z,1.85
2022-07-29T14:20:29.531Z,1.98
2022-07-29T14:25:31.250Z,1.70
2022-07-29T14:30:33.040Z,1.70
2022-07-29T14:35:34.731Z,1.90
2022-07-29T14:40:37.425Z,1.98
2022-07-29T14:45:39.214Z,1.90
2022-07-29T14:50:41.408Z,2.00
2022-07-29T14:55:43.131Z,1.77
2022-07-29T15:00:44.944Z,2.20
2022-07-29T15:05:46.745Z,2.10
2022-07-29T15:10:50.026Z,1.85
2022-07-29T15:15:51.823Z,2.05
2022-07-29T15:20:53.559Z,1.70
2022-07-29T15:25:55.909Z,2.03
2022-07-29T15:30:57.675Z,1.80
2022-07-29T15:35:59.386Z,2.25
2022-07-29T15:41:01.105Z,2.05
2022-07-29T15:46:21.501Z,2.10
2022-07-29T15:51:23.388Z,2.33
2022-07-29T15:56:25.649Z,2.00
2022-07-29T16:01:27.531Z,1.90
2022-07-29T16:06:29.605Z,2.03
2022-07-29T16:11:31.360Z,2.00
2022-07-29T16:16:33.160Z,1.98
2022-07-29T16:21:35.339Z,2.00
2022-07-29T16:26:37.117Z,2.30
2022-07-29T16:31:38.892Z,2.42
2022-07-29T16:36:43.596Z,2.30
2022-07-29T16:41:47.804Z,2.40
2022-07-29T16:46:49.562Z,2.50
2022-07-29T16:51:51.718Z,2.58
2022-07-29T16:56:54.523Z,2.35
2022-07-29T17:01:56.440Z,2.20
2022-07-29T17:06:58.477Z,2.20
2022-07-29T17:12:00.432Z,2.40
2022-07-29T17:17:03.219Z,2.50
2022-07-29T17:22:14.292Z,2.50
2022-07-29T17:27:20.536Z,2.33
2022-07-29T17:32:22.401Z,2.15
2022-07-29T17:37:24.147Z,2.58
2022-07-29T17:42:25.846Z,2.60
2022-07-29T17:47:27.559Z,2.50
2022-07-29T17:52:29.312Z,2.42
2022-07-29T17:57:31.537Z,2.90
2022-07-29T18:02:33.333Z,2.60
2022-07-29T18:07:35.198Z,2.53
2022-07-29T18:12:36.931Z,2.50
2022-07-29T18:17:57.045Z,2.42
2022-07-29T18:22:59.764Z,2.75
2022-07-29T18:28:02.012Z,2.72
2022-07-29T18:33:20.815Z,2.50
2022-07-29T18:38:23.678Z,2.65
2022-07-29T18:43:25.376Z,2.80
2022-07-29T18:48:27.119Z,2.83
2022-07-29T18:53:28.935Z,2.50
2022-07-29T18:58:33.055Z,2.90
2022-07-29T19:03:35.041Z,2.88
2022-07-29T19:08:36.754Z,2.90
2022-07-29T19:13:39.007Z,3.10
2022-07-29T19:18:41.440Z,2.53
2022-07-29T19:24:05.173Z,2.53
2022-07-29T19:29:05.159Z,2.85
2022-07-29T19:34:07.635Z,3.13
2022-07-29T19:39:09.486Z,2.58
2022-07-29T19:44:13.981Z,2.42
2022-07-29T19:49:16.315Z,2.60
2022-07-29T19:54:18.371Z,2.70
2022-07-29T19:59:23.872Z,3.05
2022-07-29T20:04:26.336Z,2.67
2022-07-29T20:09:28.365Z,2.67
2022-07-29T20:14:30.427Z,2.72
2022-07-29T20:19:32.995Z,2.83
2022-07-29T20:24:35.025Z,2.97
2022-07-29T20:29:37.723Z,2.85
2022-07-29T20:34:41.407Z,2.72
2022-07-29T20:39:43.164Z,2.90
2022-07-29T20:44:45.046Z,2.85
2022-07-29T20:49:46.995Z,2.78
2022-07-29T20:54:49.011Z,2.70
2022-07-29T20:59:50.700Z,2.92
2022-07-29T21:04:52.444Z,3.08
2022-07-29T21:09:54.190Z,3.13
2022-07-29T21:14:55.975Z,2.90
2022-07-29T21:19:57.682Z,3.20
2022-07-29T21:24:59.526Z,3.25
2022-07-29T21:30:02.674Z,2.90
2022-07-29T21:35:18.208Z,3.60
2022-07-29T21:40:27.176Z,3.10
2022-07-29T21:45:29.031Z,3.40
2022-07-29T21:50:30.845Z,3.50
2022-07-29T21:55:33.190Z,3.28
2022-07-29T22:00:35.410Z,3.25
2022-07-29T22:05:38.415Z,3.00
2022-07-29T22:10:40.157Z,3.10
2022-07-29T22:16:16.002Z,3.45
2022-07-29T22:21:17.828Z,3.40
2022-07-29T22:26:19.613Z,2.90
2022-07-29T22:31:21.400Z,2.97
2022-07-29T22:36:23.140Z,2.75
2022-07-29T22:41:24.870Z,3.47
2022-07-29T22:46:26.597Z,3.30
2022-07-29T22:51:28.381Z,3.17
2022-07-29T22:56:30.184Z,3.10
2022-07-29T23:01:37.837Z,2.85
2022-07-29T23:06:39.983Z,3.15
2022-07-29T23:11:41.807Z,3.22
2022-07-29T23:16:44.320Z,3.10
2022-07-29T23:21:46.052Z,2.80
2022-07-29T23:26:47.763Z,2.78
2022-07-29T23:31:49.489Z,2.90
2022-07-29T23:36:51.214Z,2.92
2022-07-29T23:42:24.041Z,2.97
2022-07-29T23:47:25.790Z,3.10
2022-07-29T23:52:27.726Z,3.03
2022-07-29T23:57:30.817Z,2.95
